Time;durP1;ratioP1;P1;durP2;ratioP2;P2;SDS_P1;SDS_P2;PMS_P1;PMS_P2;Temp;Humidity;BMP_temperature;BMP_pressure;BME280_temperature;BME280_humidity;BME280_pressure;Samples;Min_cycle;Max_cycle;Signal;HPM_P1;HPM_P2
2023/11/30 00:00:52;;;;;;;;;;;;;;;;;;5079910;28;20287;-57
2023/11/30 00:03:18;;;;;;;;;;;;;;;;;;5085855;28;19940;-58
2023/11/30 00:05:44;;;;;;;;;;;;;;;;;;5080658;28;19924;-58
2023/11/30 00:08:11;;;;;;;;;;;;;;;;;;5087613;28;20024;-57
2023/11/30 00:10:39;;;;;;;;;;;;;;;;;;5086893;28;20368;-57
2023/11/30 00:13:05;;;;;;;;;;;;;;;;;;5087489;28;19924;-58
2023/11/30 00:15:31;;;;;;;;;;;;;;;;;;5079760;28;19932;-60
2023/11/30 00:17:58;;;;;;;;;;;;;;;;;;5080588;28;20449;-58
2023/11/30 00:20:24;;;;;;;;;;;;;;;;;;5089629;28;19924;-57
2023/11/30 00:22:50;;;;;;;;;;;;;;;;;;5084803;28;19924;-61
2023/11/30 00:25:17;;;;;;;;;;;;;;;;;;5086439;28;19931;-59
2023/11/30 00:27:45;;;;;;;;;;;;;;;;;;5086881;28;20521;-58
2023/11/30 00:30:11;;;;;;;;;;;;;;;;;;5079394;28;19939;-58
2023/11/30 00:32:38;;;;;;;;;;;;;;;;;;5085951;28;19924;-59
2023/11/30 00:35:05;;;;;;;;;;;;;;;;;;5078714;28;19925;-59
2023/11/30 00:37:31;;;;;;;;;;;;;;;;;;5085224;28;19924;-58
2023/11/30 00:39:58;;;;;;;;;;;;;;;;;;5084343;28;19930;-59
2023/11/30 00:42:25;;;;;;;;;;;;;;;;;;5089509;28;19924;-59
2023/11/30 00:44:53;;;;;;;;;;;;;;;;;;5089317;28;19924;-59
2023/11/30 00:47:18;;;;;;;;;;;;;;;;;;5094769;28;19928;-56
2023/11/30 00:49:44;;;;;;;;;;;;;;;;;;5082955;28;19931;-57
2023/11/30 00:52:11;;;;;;;;;;;;;;;;;;5083562;28;19931;-59
2023/11/30 00:54:37;;;;;;;;;;;;;;;;;;5087521;28;19924;-60
2023/11/30 00:57:04;;;;;;;;;;;;;;;;;;5082601;28;19924;-60
2023/11/30 00:59:30;;;;;;;;;;;;;;;;;;5076215;28;19935;-59
2023/11/30 01:01:58;;;;;;;;;;;;;;;;;;5084746;28;19924;-58
2023/11/30 01:04:24;;;;;;;;;;;;;;;;;;5084399;28;19924;-59
2023/11/30 01:06:50;;;;;;;;;;;;;;;;;;5094441;28;20387;-59
2023/11/30 01:09:17;;;;;;;;;;;;;;;;;;5092905;28;20306;-60
2023/11/30 01:11:43;;;;;;;;;;;;;;;;;;5087982;28;20275;-58
2023/11/30 01:14:10;;;;;;;;;;;;;;;;;;5092045;28;20019;-59
2023/11/30 01:16:36;;;;;;;;;;;;;;;;;;5091988;28;19947;-56
2023/11/30 01:19:04;;;;;;;;;;;;;;;;;;5082030;28;19932;-58
2023/11/30 01:21:30;;;;;;;;;;;;;;;;;;5085280;28;20042;-59
2023/11/30 01:23:57;;;;;;;;;;;;;;;;;;5087384;28;19971;-59
2023/11/30 01:26:23;;;;;;;;;;;;;;;;;;5085593;28;20434;-59
2023/11/30 01:28:50;;;;;;;;;;;;;;;;;;5085674;28;20367;-56
2023/11/30 01:31:16;;;;;;;;;;;;;;;;;;5084964;28;20295;-59
2023/11/30 01:33:42;;;;;;;;;;;;;;;;;;5077737;28;19928;-58
2023/11/30 01:36:11;;;;;;;;;;;;;;;;;;5092605;28;19925;-56
2023/11/30 01:38:37;;;;;;;;;;;;;;;;;;5093876;28;19931;-58
2023/11/30 01:41:03;;;;;;;;;;;;;;;;;;5090535;28;19924;-59
2023/11/30 01:43:30;;;;;;;;;;;;;;;;;;5092443;28;19928;-59
2023/11/30 01:45:56;;;;;;;;;;;;;;;;;;5081227;28;20291;-56
2023/11/30 01:48:24;;;;;;;;;;;;;;;;;;5079289;28;20300;-58
2023/11/30 01:50:50;;;;;;;;;;;;;;;;;;5076826;28;19928;-57
2023/11/30 01:53:18;;;;;;;;;;;;;;;;;;5079557;28;19931;-59
2023/11/30 01:55:44;;;;;;;;;;;;;;;;;;5081429;28;19931;-59
2023/11/30 01:58:11;;;;;;;;;;;;;;;;;;5092878;28;19924;-59
2023/11/30 02:00:38;;;;;;;;;;;;;;;;;;5090971;28;19930;-59
2023/11/30 02:03:05;;;;;;;;;;;;;;;;;;5087232;28;19924;-59
2023/11/30 02:05:31;;;;;;;;;;;;;;;;;;5087283;28;20402;-59
2023/11/30 02:07:57;;;;;;;;;;;;;;;;;;5088671;28;19924;-60
2023/11/30 02:10:25;;;;;;;;;;;;;;;;;;5073067;28;19924;-59
2023/11/30 02:12:51;;;;;;;;;;;;;;;;;;5091484;28;19924;-59
2023/11/30 02:15:18;;;;;;;;;;;;;;;;;;5092090;28;19931;-59
2023/11/30 02:17:45;;;;;;;;;;;;;;;;;;5081710;28;19924;-59
2023/11/30 02:20:11;;;;;;;;;;;;;;;;;;5078858;28;20342;-59
2023/11/30 02:22:39;;;;;;;;;;;;;;;;;;5077183;28;19931;-56
2023/11/30 02:25:06;;;;;;;;;;;;;;;;;;5085856;28;19924;-55
2023/11/30 02:27:32;;;;;;;;;;;;;;;;;;5077474;28;19947;-59
2023/11/30 02:29:58;;;;;;;;;;;;;;;;;;5091845;28;19924;-56
2023/11/30 02:32:25;;;;;;;;;;;;;;;;;;5080741;28;19931;-57
2023/11/30 02:34:51;;;;;;;;;;;;;;;;;;5092854;28;19925;-59
2023/11/30 02:37:17;;;;;;;;;;;;;;;;;;5088835;28;19924;-60
2023/11/30 02:39:45;;;;;;;;;;;;;;;;;;5089989;28;19929;-59
2023/11/30 02:42:12;;;;;;;;;;;;;;;;;;5088836;28;19924;-59
2023/11/30 02:44:38;;;;;;;;;;;;;;;;;;5092303;28;19924;-57
2023/11/30 02:47:04;;;;;;;;;;;;;;;;;;5092328;28;19931;-60
2023/11/30 02:49:31;;;;;;;;;;;;;;;;;;5092744;28;19928;-60
2023/11/30 02:51:57;;;;;;;;;;;;;;;;;;5086703;28;19931;-58
2023/11/30 02:54:23;;;;;;;;;;;;;;;;;;5072575;28;19931;-59
2023/11/30 02:56:51;;;;;;;;;;;;;;;;;;5085315;28;19932;-56
2023/11/30 02:59:18;;;;;;;;;;;;;;;;;;5084897;28;19931;-59
2023/11/30 03:01:44;;;;;;;;;;;;;;;;;;5086298;28;19932;-58
2023/11/30 03:04:11;;;;;;;;;;;;;;;;;;5091654;28;19969;-57
2023/11/30 03:06:38;;;;;;;;;;;;;;;;;;5083886;28;19925;-57
2023/11/30 03:09:04;;;;;;;;;;;;;;;;;;5086741;28;19946;-58
2023/11/30 03:11:31;;;;;;;;;;;;;;;;;;5090791;28;19940;-60
2023/11/30 03:13:58;;;;;;;;;;;;;;;;;;5096513;28;19978;-59
2023/11/30 03:16:25;;;;;;;;;;;;;;;;;;5095633;28;19931;-58
2023/11/30 03:18:52;;;;;;;;;;;;;;;;;;5075963;28;19924;-59
2023/11/30 03:21:18;;;;;;;;;;;;;;;;;;5080058;28;19924;-58
2023/11/30 03:23:45;;;;;;;;;;;;;;;;;;5086928;28;19924;-59
2023/11/30 03:26:11;;;;;;;;;;;;;;;;;;5088724;28;19947;-57
2023/11/30 03:28:38;;;;;;;;;;;;;;;;;;5085336;28;19935;-58
2023/11/30 03:31:06;;;;;;;;;;;;;;;;;;5078070;28;19931;-59
2023/11/30 03:33:32;;;;;;;;;;;;;;;;;;5084799;28;19925;-59
2023/11/30 03:35:59;;;;;;;;;;;;;;;;;;5095872;28;20114;-56
2023/11/30 03:38:25;;;;;;;;;;;;;;;;;;5095546;28;20312;-59
2023/11/30 03:40:52;;;;;;;;;;;;;;;;;;5083240;28;19974;-59
2023/11/30 03:43:18;;;;;;;;;;;;;;;;;;5090456;28;20279;-58
2023/11/30 03:45:44;;;;;;;;;;;;;;;;;;5088301;28;20618;-58
2023/11/30 03:48:12;;;;;;;;;;;;;;;;;;5095398;28;19934;-59
2023/11/30 03:50:38;;;;;;;;;;;;;;;;;;5095750;28;20272;-58
2023/11/30 03:53:05;;;;;;;;;;;;;;;;;;5094799;28;20287;-58
2023/11/30 03:55:31;;;;;;;;;;;;;;;;;;5094865;28;20019;-55
2023/11/30 03:57:58;;;;;;;;;;;;;;;;;;5090746;28;19931;-59
2023/11/30 04:00:25;;;;;;;;;;;;;;;;;;5083241;28;19931;-55
2023/11/30 04:02:51;;;;;;;;;;;;;;;;;;5094666;28;19970;-58
2023/11/30 04:05:19;;;;;;;;;;;;;;;;;;5085273;28;20376;-58
2023/11/30 04:07:46;;;;;;;;;;;;;;;;;;5094117;28;20337;-57
2023/11/30 04:10:12;;;;;;;;;;;;;;;;;;5093661;28;19924;-58
2023/11/30 04:12:39;;;;;;;;;;;;;;;;;;5093733;28;19935;-56
2023/11/30 04:15:06;;;;;;;;;;;;;;;;;;5082706;28;19924;-57
2023/11/30 04:17:32;;;;;;;;;;;;;;;;;;5086054;28;19924;-58
2023/11/30 04:19:58;;;;;;;;;;;;;;;;;;5085604;28;20379;-57
2023/11/30 04:22:26;;;;;;;;;;;;;;;;;;5093786;28;20098;-59
2023/11/30 04:24:52;;;;;;;;;;;;;;;;;;5093136;28;19932;-58
2023/11/30 04:27:19;;;;;;;;;;;;;;;;;;5078663;28;19935;-58
2023/11/30 04:29:46;;;;;;;;;;;;;;;;;;5082189;28;19928;-58
2023/11/30 04:32:12;;;;;;;;;;;;;;;;;;5089436;28;19924;-59
2023/11/30 04:34:38;;;;;;;;;;;;;;;;;;5093301;28;19925;-59
2023/11/30 04:37:05;;;;;;;;;;;;;;;;;;5091804;28;19931;-61
2023/11/30 04:39:33;;;;;;;;;;;;;;;;;;5092017;28;19924;-57
2023/11/30 04:41:59;;;;;;;;;;;;;;;;;;5080210;28;19947;-58
2023/11/30 04:44:27;;;;;;;;;;;;;;;;;;5089161;28;20329;-59
2023/11/30 04:46:53;;;;;;;;;;;;;;;;;;5089563;28;19924;-60
2023/11/30 04:49:19;;;;;;;;;;;;;;;;;;5093473;28;19924;-60
2023/11/30 04:51:46;;;;;;;;;;;;;;;;;;5085088;28;19924;-60
2023/11/30 04:54:12;;;;;;;;;;;;;;;;;;5078974;28;19931;-60
2023/11/30 04:56:40;;;;;;;;;;;;;;;;;;5092103;28;19947;-58
2023/11/30 04:59:06;;;;;;;;;;;;;;;;;;5079405;28;19935;-56
2023/11/30 05:01:33;;;;;;;;;;;;;;;;;;5090722;28;20311;-60
2023/11/30 05:03:59;;;;;;;;;;;;;;;;;;5022922;28;1976674;-60
2023/11/30 05:06:25;;;;;;;;;;;;;;;;;;5090722;28;19924;-60
2023/11/30 05:08:52;;;;;;;;;;;;;;;;;;5093880;28;20322;-58
2023/11/30 05:11:18;;;;;;;;;;;;;;;;;;5086682;28;19925;-59
2023/11/30 05:13:46;;;;;;;;;;;;;;;;;;5093572;28;19943;-58
2023/11/30 05:16:12;;;;;;;;;;;;;;;;;;5093087;28;20010;-60
2023/11/30 05:18:39;;;;;;;;;;;;;;;;;;5093599;28;19930;-58
2023/11/30 05:21:05;;;;;;;;;;;;;;;;;;5093706;28;19924;-59
2023/11/30 05:23:32;;;;;;;;;;;;;;;;;;5094385;28;19934;-59
2023/11/30 05:25:58;;;;;;;;;;;;;;;;;;5093333;28;19924;-59
2023/11/30 05:28:24;;;;;;;;;;;;;;;;;;5089233;28;20297;-60
2023/11/30 05:30:52;;;;;;;;;;;;;;;;;;5092863;28;19925;-59
2023/11/30 05:33:19;;;;;;;;;;;;;;;;;;5093656;28;20366;-59
2023/11/30 05:35:45;;;;;;;;;;;;;;;;;;5092070;28;19924;-59
2023/11/30 05:38:12;;;;;;;;;;;;;;;;;;5085181;28;19935;-57
2023/11/30 05:40:38;;;;;;;;;;;;;;;;;;5093337;28;19932;-58
2023/11/30 05:43:05;;;;;;;;;;;;;;;;;;5092069;28;20345;-60
2023/11/30 05:45:31;;;;;;;;;;;;;;;;;;5084273;28;19928;-59
2023/11/30 05:47:59;;;;;;;;;;;;;;;;;;5084231;28;19931;-58
2023/11/30 05:50:25;;;;;;;;;;;;;;;;;;5085757;28;19946;-59
2023/11/30 05:52:52;;;;;;;;;;;;;;;;;;5093046;28;19928;-59
2023/11/30 05:55:18;;;;;;;;;;;;;;;;;;5093394;28;19924;-58
2023/11/30 05:57:45;;;;;;;;;;;;;;;;;;5079925;28;19967;-60
2023/11/30 06:00:12;;;;;;;;;;;;;;;;;;5093070;28;19928;-59
2023/11/30 06:02:39;;;;;;;;;;;;;;;;;;5079396;28;20295;-59
2023/11/30 06:05:07;;;;;;;;;;;;;;;;;;5091529;28;19931;-60
2023/11/30 06:07:33;;;;;;;;;;;;;;;;;;5084764;28;19924;-59
2023/11/30 06:10:00;;;;;;;;;;;;;;;;;;5083311;28;19976;-60
2023/11/30 06:12:26;;;;;;;;;;;;;;;;;;5090061;28;19935;-60
2023/11/30 06:14:53;;;;;;;;;;;;;;;;;;5084295;28;20276;-59
2023/11/30 06:17:19;;;;;;;;;;;;;;;;;;5093360;28;19924;-58
2023/11/30 06:19:45;;;;;;;;;;;;;;;;;;5089505;28;20410;-60
2023/11/30 06:22:14;;;;;;;;;;;;;;;;;;5090230;28;19928;-60
2023/11/30 06:24:40;;;;;;;;;;;;;;;;;;5083149;28;19995;-58
2023/11/30 06:27:07;;;;;;;;;;;;;;;;;;5092803;28;19931;-59
2023/11/30 06:29:33;;;;;;;;;;;;;;;;;;5091733;28;19927;-59
2023/11/30 06:32:00;;;;;;;;;;;;;;;;;;5076355;28;19924;-59
2023/11/30 06:34:26;;;;;;;;;;;;;;;;;;5091125;28;19930;-60
2023/11/30 06:36:53;;;;;;;;;;;;;;;;;;5091504;28;20016;-59
2023/11/30 06:39:20;;;;;;;;;;;;;;;;;;5085681;28;20402;-60
2023/11/30 06:41:47;;;;;;;;;;;;;;;;;;5084570;28;19924;-60
2023/11/30 06:44:13;;;;;;;;;;;;;;;;;;5082511;28;19939;-59
2023/11/30 06:46:42;;;;;;;;;;;;;;;;;;5086001;28;19931;-60
2023/11/30 06:49:08;;;;;;;;;;;;;;;;;;5092581;28;19977;-59
2023/11/30 06:51:35;;;;;;;;;;;;;;;;;;5092675;28;19925;-59
2023/11/30 06:54:01;;;;;;;;;;;;;;;;;;5084770;28;20042;-59
2023/11/30 06:56:29;;;;;;;;;;;;;;;;;;5089550;28;20374;-56
2023/11/30 06:58:55;;;;;;;;;;;;;;;;;;5092176;28;19932;-60
2023/11/30 07:01:23;;;;;;;;;;;;;;;;;;5088164;28;19924;-59
2023/11/30 07:03:50;;;;;;;;;;;;;;;;;;5084997;28;19925;-60
2023/11/30 07:06:16;;;;;;;;;;;;;;;;;;5088368;28;20387;-58
2023/11/30 07:08:43;;;;;;;;;;;;;;;;;;5088461;28;20023;-60
2023/11/30 07:11:11;;;;;;;;;;;;;;;;;;5078161;28;20399;-60
2023/11/30 07:13:39;;;;;;;;;;;;;;;;;;5092167;28;20375;-60
2023/11/30 07:16:06;;;;;;;;;;;;;;;;;;5086391;28;19938;-60
2023/11/30 07:18:33;;;;;;;;;;;;;;;;;;5090361;28;19949;-59
2023/11/30 07:21:00;;;;;;;;;;;;;;;;;;5091829;28;19924;-60
2023/11/30 07:23:26;;;;;;;;;;;;;;;;;;5085196;28;19930;-59
2023/11/30 07:25:52;;;;;;;;;;;;;;;;;;5088398;28;19935;-60
2023/11/30 07:28:19;;;;;;;;;;;;;;;;;;5090365;28;19924;-59
2023/11/30 07:30:47;;;;;;;;;;;;;;;;;;5081400;28;19936;-59
2023/11/30 07:33:14;;;;;;;;;;;;;;;;;;5082162;28;19935;-58
2023/11/30 07:35:40;;;;;;;;;;;;;;;;;;5087521;28;19942;-58
2023/11/30 07:38:07;;;;;;;;;;;;;;;;;;5091542;28;20371;-59
2023/11/30 07:40:34;;;;;;;;;;;;;;;;;;5088088;28;19924;-58
2023/11/30 07:43:00;;;;;;;;;;;;;;;;;;5084611;28;19935;-59
2023/11/30 07:45:27;;;;;;;;;;;;;;;;;;5083403;28;19924;-58
2023/11/30 07:47:56;;;;;;;;;;;;;;;;;;5081596;28;19928;-58
2023/11/30 07:50:23;;;;;;;;;;;;;;;;;;5077377;28;20027;-59
2023/11/30 07:52:49;;;;;;;;;;;;;;;;;;5083785;28;20252;-59
2023/11/30 07:55:16;;;;;;;;;;;;;;;;;;5086762;28;19924;-58
2023/11/30 07:57:42;;;;;;;;;;;;;;;;;;5082687;28;20458;-57
2023/11/30 08:00:11;;;;;;;;;;;;;;;;;;5088338;28;19930;-57
2023/11/30 08:02:37;;;;;;;;;;;;;;;;;;5089831;28;19979;-60
2023/11/30 08:05:06;;;;;;;;;;;;;;;;;;5087652;28;19924;-64
2023/11/30 08:07:32;;;;;;;;;;;;;;;;;;5095824;28;19924;-58
2023/11/30 08:09:58;;;;;;;;;;;;;;;;;;5091629;28;19924;-57
2023/11/30 08:12:25;;;;;;;;;;;;;;;;;;5078603;28;19933;-58
2023/11/30 08:14:51;;;;;;;;;;;;;;;;;;5079984;28;20317;-58
2023/11/30 08:17:17;;;;;;;;;;;;;;;;;;5091573;28;19931;-58
2023/11/30 08:19:44;;;;;;;;;;;;;;;;;;5081591;28;19924;-58
2023/11/30 08:22:11;;;;;;;;;;;;;;;;;;5089596;28;19924;-57
2023/11/30 08:24:38;;;;;;;;;;;;;;;;;;5086874;28;19924;-59
2023/11/30 08:27:06;;;;;;;;;;;;;;;;;;5090912;28;19924;-59
2023/11/30 08:29:32;;;;;;;;;;;;;;;;;;5083962;28;19928;-59
2023/11/30 08:31:59;;;;;;;;;;;;;;;;;;5081178;28;19924;-60
2023/11/30 08:34:25;;;;;;;;;;;;;;;;;;5092693;28;19969;-61
2023/11/30 08:36:51;;;;;;;;;;;;;;;;;;5094252;28;19924;-62
2023/11/30 08:39:23;;;;;;;;;;;;;;;;;;5085695;28;19935;-59
2023/11/30 08:41:49;;;;;;;;;;;;;;;;;;5089539;28;20011;-58
2023/11/30 08:44:16;;;;;;;;;;;;;;;;;;5093368;28;19964;-58
2023/11/30 08:46:42;;;;;;;;;;;;;;;;;;5083041;28;19986;-57
2023/11/30 08:49:10;;;;;;;;;;;;;;;;;;5083540;28;19925;-58
2023/11/30 08:51:37;;;;;;;;;;;;;;;;;;5083709;28;19924;-59
2023/11/30 08:54:03;;;;;;;;;;;;;;;;;;5082560;28;19932;-58
2023/11/30 08:56:31;;;;;;;;;;;;;;;;;;5089059;28;20371;-59
2023/11/30 08:58:57;;;;;;;;;;;;;;;;;;5089893;28;19931;-57
2023/11/30 09:01:23;;;;;;;;;;;;;;;;;;5076908;28;19934;-59
2023/11/30 09:03:52;;;;;;;;;;;;;;;;;;5078638;28;19931;-59
2023/11/30 09:06:19;;;;;;;;;;;;;;;;;;5080251;28;19928;-58
2023/11/30 09:08:45;;;;;;;;;;;;;;;;;;5078292;28;19925;-55
2023/11/30 09:11:12;;;;;;;;;;;;;;;;;;5077136;28;19924;-58
2023/11/30 09:13:39;;;;;;;;;;;;;;;;;;5084822;28;19924;-58
2023/11/30 09:16:06;;;;;;;;;;;;;;;;;;5080789;28;19940;-59
2023/11/30 09:18:33;;;;;;;;;;;;;;;;;;5076380;28;19955;-61
2023/11/30 09:20:59;;;;;;;;;;;;;;;;;;5083526;28;19928;-61
2023/11/30 09:23:29;;;;;;;;;;;;;;;;;;5092102;28;19942;-58
2023/11/30 09:25:55;;;;;;;;;;;;;;;;;;5092516;28;20415;-58
2023/11/30 09:28:22;;;;;;;;;;;;;;;;;;5078836;28;19924;-59
2023/11/30 09:30:50;;;;;;;;;;;;;;;;;;5073106;28;19925;-57
2023/11/30 09:33:17;;;;;;;;;;;;;;;;;;5082420;28;19932;-59
2023/11/30 09:35:43;;;;;;;;;;;;;;;;;;5083854;28;20374;-60
2023/11/30 09:38:09;;;;;;;;;;;;;;;;;;5082059;28;19924;-59
2023/11/30 09:40:36;;;;;;;;;;;;;;;;;;5076890;28;19928;-58
2023/11/30 09:43:04;;;;;;;;;;;;;;;;;;5089803;28;19935;-57
2023/11/30 09:45:31;;;;;;;;;;;;;;;;;;5075280;28;19930;-58
2023/11/30 09:47:58;;;;;;;;;;;;;;;;;;5073294;28;20294;-57
2023/11/30 09:50:25;;;;;;;;;;;;;;;;;;5080624;28;20544;-58
2023/11/30 09:52:51;;;;;;;;;;;;;;;;;;5085774;28;20383;-58
2023/11/30 09:55:20;;;;;;;;;;;;;;;;;;5083069;28;19929;-58
2023/11/30 09:57:46;;;;;;;;;;;;;;;;;;5080203;28;20414;-58
2023/11/30 10:00:14;;;;;;;;;;;;;;;;;;5083628;28;20291;-57
2023/11/30 10:02:50;;;;;;;;;;;;;;;;;;5083178;28;19928;-57
2023/11/30 10:05:18;;;;;;;;;;;;;;;;;;5082728;28;20391;-58
2023/11/30 10:07:44;;;;;;;;;;;;;;;;;;5078907;28;19939;-55
2023/11/30 10:10:11;;;;;;;;;;;;;;;;;;5077380;28;19939;-58
2023/11/30 10:12:37;;;;;;;;;;;;;;;;;;5072693;28;19947;-59
2023/11/30 10:15:04;;;;;;;;;;;;;;;;;;5073789;28;19929;-58
2023/11/30 10:17:31;;;;;;;;;;;;;;;;;;5085627;28;19924;-58
2023/11/30 10:19:57;;;;;;;;;;;;;;;;;;5080065;28;19931;-58
2023/11/30 10:22:26;;;;;;;;;;;;;;;;;;5079297;28;19932;-60
2023/11/30 10:24:52;;;;;;;;;;;;;;;;;;5081479;28;19924;-59
2023/11/30 10:27:20;;;;;;;;;;;;;;;;;;5079605;28;20352;-57
2023/11/30 10:29:48;;;;;;;;;;;;;;;;;;5081087;28;19932;-58
2023/11/30 10:32:15;;;;;;;;;;;;;;;;;;5080129;28;19924;-58
2023/11/30 10:34:44;;;;;;;;;;;;;;;;;;5081840;28;19950;-58
2023/11/30 10:37:10;;;;;;;;;;;;;;;;;;5081677;28;19930;-57
2023/11/30 10:39:40;;;;;;;;;;;;;;;;;;5081171;28;19979;-59
2023/11/30 10:42:09;;;;;;;;;;;;;;;;;;5084237;28;20023;-58
2023/11/30 10:44:36;;;;;;;;;;;;;;;;;;5081235;28;19924;-58
2023/11/30 10:47:03;;;;;;;;;;;;;;;;;;5078530;28;20019;-59
2023/11/30 10:49:30;;;;;;;;;;;;;;;;;;5077799;28;19972;-59
2023/11/30 10:51:58;;;;;;;;;;;;;;;;;;5078643;28;20026;-58
2023/11/30 10:54:30;;;;;;;;;;;;;;;;;;5077727;28;20032;-58
2023/11/30 10:56:59;;;;;;;;;;;;;;;;;;5081120;28;19942;-58
2023/11/30 10:59:28;;;;;;;;;;;;;;;;;;5082116;28;19939;-58
2023/11/30 11:01:56;;;;;;;;;;;;;;;;;;5079721;28;19964;-56
2023/11/30 11:04:23;;;;;;;;;;;;;;;;;;5084453;28;20015;-56
2023/11/30 11:06:50;;;;;;;;;;;;;;;;;;5080748;28;20027;-58
2023/11/30 11:09:16;;;;;;;;;;;;;;;;;;5085813;28;20019;-58
2023/11/30 11:11:44;;;;;;;;;;;;;;;;;;5079177;28;19978;-58
2023/11/30 11:17:07;;;;;;;;;;;;;;;;;;5154786;27;19915;-57
2023/11/30 11:19:34;;;;;;;;;;;;;;;;;;5142721;27;20003;-57
2023/11/30 11:22:00;;;;;;;;;;;;;;;;;;5145122;27;20010;-58
2023/11/30 11:24:27;;;;;;;;;;;;;;;;;;5149678;27;20022;-59
2023/11/30 11:26:58;;;;;;;;;;;;;;;;;;5149365;27;20014;-58
2023/11/30 11:29:24;;;;;;;;;;;;;;;;;;5148814;27;19923;-58
2023/11/30 11:31:52;;;;;;;;;;;;;;;;;;5149304;27;19970;-59
2023/11/30 11:34:19;;;;;;;;;;;;;;;;;;5149408;27;19927;-58
2023/11/30 11:36:46;;;;;;;;;;;;;;;;;;5144985;27;20023;-59
2023/11/30 11:39:13;;;;;;;;;;;;;;;;;;5146743;27;19978;-57
2023/11/30 11:41:39;;;;;;;;;;;;;;;;;;5141400;27;19924;-58
2023/11/30 11:44:07;;;;;;;;;;;;;;;;;;5144901;27;20372;-58
2023/11/30 11:46:34;;;;;;;;;;;;;;;;;;5142537;27;19984;-58
2023/11/30 11:49:00;;;;;;;;;;;;;;;;;;5141729;27;20018;-59
2023/11/30 11:51:28;;;;;;;;;;;;;;;;;;5139669;27;19966;-56
2023/11/30 11:53:55;;;;;;;;;;;;;;;;;;5145642;27;19944;-57
2023/11/30 11:56:22;;;;;;;;;;;;;;;;;;5138290;27;19954;-58
2023/11/30 11:58:48;;;;;;;;;;;;;;;;;;5135083;27;20006;-59
2023/11/30 12:01:15;;;;;;;;;;;;;;;;;;5138067;27;20014;-58
2023/11/30 12:03:45;;;;;;;;;;;;;;;;;;5139177;27;20394;-58
2023/11/30 12:06:12;;;;;;;;;;;;;;;;;;5141083;27;20010;-57
2023/11/30 12:08:39;;;;;;;;;;;;;;;;;;5138342;27;20030;-60
2023/11/30 12:11:06;;;;;;;;;;;;;;;;;;5144957;27;19966;-58
2023/11/30 12:13:37;;;;;;;;;;;;;;;;;;5133112;27;20027;-58
2023/11/30 12:16:04;;;;;;;;;;;;;;;;;;5139895;27;20052;-55
2023/11/30 12:18:31;;;;;;;;;;;;;;;;;;5144198;27;19973;-55
2023/11/30 12:20:58;;;;;;;;;;;;;;;;;;5141039;27;19924;-55
2023/11/30 12:23:24;;;;;;;;;;;;;;;;;;5144244;27;19923;-57
2023/11/30 12:25:52;;;;;;;;;;;;;;;;;;5148140;27;19969;-57
2023/11/30 12:28:19;;;;;;;;;;;;;;;;;;5125814;27;19930;-56
2023/11/30 12:30:45;;;;;;;;;;;;;;;;;;5125227;27;20302;-57
2023/11/30 12:33:12;;;;;;;;;;;;;;;;;;5130430;27;20335;-59
2023/11/30 12:35:39;;;;;;;;;;;;;;;;;;5133750;27;20004;-57
2023/11/30 12:38:05;;;;;;;;;;;;;;;;;;5129900;27;19963;-58
2023/11/30 12:40:32;;;;;;;;;;;;;;;;;;5130448;27;20451;-57
2023/11/30 12:42:59;;;;;;;;;;;;;;;;;;5122888;27;19967;-59
2023/11/30 12:45:27;;;;;;;;;;;;;;;;;;5127267;27;20018;-56
2023/11/30 12:47:53;;;;;;;;;;;;;;;;;;5122934;27;19924;-57
2023/11/30 12:50:20;;;;;;;;;;;;;;;;;;5125315;27;20264;-57
2023/11/30 12:52:47;;;;;;;;;;;;;;;;;;5133389;27;19948;-58
2023/11/30 12:55:13;;;;;;;;;;;;;;;;;;5128903;27;19928;-57
2023/11/30 12:57:40;;;;;;;;;;;;;;;;;;5124380;27;20046;-55
2023/11/30 13:00:14;;;;;;;;;;;;;;;;;;5122142;27;20410;-57
2023/11/30 13:02:43;;;;;;;;;;;;;;;;;;5125629;27;19923;-57
2023/11/30 13:05:09;;;;;;;;;;;;;;;;;;5129970;27;19923;-55
2023/11/30 13:07:36;;;;;;;;;;;;;;;;;;5131154;27;19958;-55
2023/11/30 13:10:03;;;;;;;;;;;;;;;;;;5122234;27;20266;-56
2023/11/30 13:12:30;;;;;;;;;;;;;;;;;;5120945;27;19985;-58
2023/11/30 13:14:57;;;;;;;;;;;;;;;;;;5132646;27;20458;-56
2023/11/30 13:17:26;;;;;;;;;;;;;;;;;;5130118;27;19928;-59
2023/11/30 13:19:53;;;;;;;;;;;;;;;;;;5125951;27;19985;-56
2023/11/30 13:22:21;;;;;;;;;;;;;;;;;;5120657;27;19974;-57
2023/11/30 13:24:47;;;;;;;;;;;;;;;;;;5126964;27;19931;-58
2023/11/30 13:27:14;;;;;;;;;;;;;;;;;;5132067;27;19963;-56
2023/11/30 13:29:40;;;;;;;;;;;;;;;;;;5122134;27;19967;-58
2023/11/30 13:32:07;;;;;;;;;;;;;;;;;;5121728;27;20462;-58
2023/11/30 13:34:35;;;;;;;;;;;;;;;;;;5130894;27;20009;-58
2023/11/30 13:37:02;;;;;;;;;;;;;;;;;;5133283;27;20256;-56
2023/11/30 13:39:28;;;;;;;;;;;;;;;;;;5124961;27;19955;-57
2023/11/30 13:41:57;;;;;;;;;;;;;;;;;;5125568;27;19923;-57
2023/11/30 13:44:23;;;;;;;;;;;;;;;;;;5131128;27;19923;-58
2023/11/30 13:46:50;;;;;;;;;;;;;;;;;;5116591;27;20098;-59
2023/11/30 13:49:17;;;;;;;;;;;;;;;;;;5118449;27;20379;-57
2023/11/30 13:51:45;;;;;;;;;;;;;;;;;;5124283;27;19970;-56
2023/11/30 13:54:12;;;;;;;;;;;;;;;;;;5131894;27;19923;-57
2023/11/30 13:56:38;;;;;;;;;;;;;;;;;;5132283;27;20432;-58
2023/11/30 13:59:05;;;;;;;;;;;;;;;;;;5132200;27;20018;-58
2023/11/30 14:01:31;;;;;;;;;;;;;;;;;;5132525;27;19931;-59
2023/11/30 14:03:58;;;;;;;;;;;;;;;;;;5123879;27;19971;-57
2023/11/30 14:06:24;;;;;;;;;;;;;;;;;;5132813;27;20011;-58
2023/11/30 14:08:52;;;;;;;;;;;;;;;;;;5124082;27;19981;-58
2023/11/30 14:11:18;;;;;;;;;;;;;;;;;;5124156;27;19970;-57
2023/11/30 14:13:45;;;;;;;;;;;;;;;;;;5123784;27;19924;-55
2023/11/30 14:16:11;;;;;;;;;;;;;;;;;;5132145;27;19977;-58
2023/11/30 14:18:38;;;;;;;;;;;;;;;;;;5132465;27;19959;-57
2023/11/30 14:21:05;;;;;;;;;;;;;;;;;;5124159;27;19971;-58
2023/11/30 14:23:32;;;;;;;;;;;;;;;;;;5132426;27;19948;-58
2023/11/30 14:26:00;;;;;;;;;;;;;;;;;;5132086;27;19970;-56
2023/11/30 14:28:27;;;;;;;;;;;;;;;;;;5123379;27;19927;-57
2023/11/30 14:30:54;;;;;;;;;;;;;;;;;;5125145;27;19975;-56
2023/11/30 14:33:21;;;;;;;;;;;;;;;;;;5122109;27;19931;-59
2023/11/30 14:35:47;;;;;;;;;;;;;;;;;;5121031;27;19962;-58
2023/11/30 14:38:14;;;;;;;;;;;;;;;;;;5120428;28;19969;-55
2023/11/30 14:40:40;;;;;;;;;;;;;;;;;;5123403;27;19976;-55
2023/11/30 14:43:08;;;;;;;;;;;;;;;;;;5126743;27;20254;-56
2023/11/30 14:45:34;;;;;;;;;;;;;;;;;;5117403;27;19924;-60
2023/11/30 14:48:01;;;;;;;;;;;;;;;;;;5126760;27;19983;-60
2023/11/30 14:50:28;;;;;;;;;;;;;;;;;;5122135;27;19934;-55
2023/11/30 14:52:54;;;;;;;;;;;;;;;;;;5122212;27;20091;-56
2023/11/30 14:55:21;;;;;;;;;;;;;;;;;;5119866;27;19946;-57
2023/11/30 14:57:47;;;;;;;;;;;;;;;;;;5129179;27;19987;-57
2023/11/30 15:00:20;;;;;;;;;;;;;;;;;;5119529;28;19924;-57
2023/11/30 15:02:46;;;;;;;;;;;;;;;;;;5124904;27;19944;-59
2023/11/30 15:05:15;;;;;;;;;;;;;;;;;;5140526;27;19949;-58
2023/11/30 15:07:41;;;;;;;;;;;;;;;;;;5140743;27;19930;-56
2023/11/30 15:10:10;;;;;;;;;;;;;;;;;;5123349;27;19924;-56
2023/11/30 15:12:37;;;;;;;;;;;;;;;;;;5120141;28;19924;-58
2023/11/30 15:15:08;;;;;;;;;;;;;;;;;;5124417;28;20337;-58
2023/11/30 15:17:36;;;;;;;;;;;;;;;;;;5140410;28;20021;-58
2023/11/30 15:20:03;;;;;;;;;;;;;;;;;;5140393;28;19923;-56
2023/11/30 15:22:30;;;;;;;;;;;;;;;;;;5140526;28;20015;-56
2023/11/30 15:24:56;;;;;;;;;;;;;;;;;;5139728;28;19973;-57
2023/11/30 15:27:23;;;;;;;;;;;;;;;;;;5139650;28;20344;-58
2023/11/30 15:29:49;;;;;;;;;;;;;;;;;;5137137;28;19953;-58
2023/11/30 15:32:16;;;;;;;;;;;;;;;;;;5119247;28;19924;-57
2023/11/30 15:34:44;;;;;;;;;;;;;;;;;;5121334;28;19923;-57
2023/11/30 15:37:10;;;;;;;;;;;;;;;;;;5140059;28;19930;-58
2023/11/30 15:39:37;;;;;;;;;;;;;;;;;;5139966;28;20343;-58
2023/11/30 15:42:04;;;;;;;;;;;;;;;;;;5123324;28;19924;-58
2023/11/30 15:44:30;;;;;;;;;;;;;;;;;;5118738;28;19997;-57
2023/11/30 15:46:58;;;;;;;;;;;;;;;;;;5123994;28;19923;-58
2023/11/30 15:49:25;;;;;;;;;;;;;;;;;;5123984;28;19946;-58
2023/11/30 15:51:53;;;;;;;;;;;;;;;;;;5134524;28;19943;-58
2023/11/30 15:54:20;;;;;;;;;;;;;;;;;;5121416;28;20202;-56
2023/11/30 15:56:46;;;;;;;;;;;;;;;;;;5124445;28;19985;-58
2023/11/30 15:59:13;;;;;;;;;;;;;;;;;;5132430;27;19981;-58
2023/11/30 16:01:39;;;;;;;;;;;;;;;;;;5140901;27;20236;-57
2023/11/30 16:04:07;;;;;;;;;;;;;;;;;;5135325;27;19976;-59
2023/11/30 16:06:34;;;;;;;;;;;;;;;;;;5126539;27;19931;-58
2023/11/30 16:09:03;;;;;;;;;;;;;;;;;;5134230;27;20305;-56
2023/11/30 16:11:29;;;;;;;;;;;;;;;;;;5143802;27;20018;-57
2023/11/30 16:13:56;;;;;;;;;;;;;;;;;;5144362;27;19924;-56
2023/11/30 16:16:23;;;;;;;;;;;;;;;;;;5128219;27;20292;-57
2023/11/30 16:18:49;;;;;;;;;;;;;;;;;;5127202;27;19934;-56
2023/11/30 16:21:16;;;;;;;;;;;;;;;;;;5142783;27;20513;-58
2023/11/30 16:23:43;;;;;;;;;;;;;;;;;;5143407;27;19923;-56
2023/11/30 16:26:16;;;;;;;;;;;;;;;;;;5142963;27;19976;-56
2023/11/30 16:28:42;;;;;;;;;;;;;;;;;;5143408;27;19962;-57
2023/11/30 16:31:09;;;;;;;;;;;;;;;;;;5143036;27;19930;-57
2023/11/30 16:33:35;;;;;;;;;;;;;;;;;;5143076;27;19963;-58
2023/11/30 16:36:02;;;;;;;;;;;;;;;;;;5143200;27;19962;-56
2023/11/30 16:38:28;;;;;;;;;;;;;;;;;;5143804;27;19923;-57
2023/11/30 16:40:55;;;;;;;;;;;;;;;;;;5143155;27;19968;-58
2023/11/30 16:43:23;;;;;;;;;;;;;;;;;;5140781;27;19923;-57
2023/11/30 16:45:50;;;;;;;;;;;;;;;;;;5143537;27;19924;-57